North Conway, New Hampshire
Current Conditions -  °F | °C
As of 12:54 AM on Wednesday 28 Jan 2015 (Local Time) from KIZG Reporting Station
Overcast Overcast  
Wind Chill: -18°   Ceiling: 4100
Heat Index: -10°   Visibility: 10mi
Dew Point: -16°   Wind: 14mph
Humidity: 64%   Direction: 340°NNW
Pressure: 29.68"   Gusts: 22mph
Location:  44.05°N, 71.13°W
Report Text: KIZG 280554Z AUTO 34012G19KT 10SM OVC041 M10/M16 A2968 RMK AO2 SNB49E52 SLP058 P0000 60006 T11001156 11100 21111 51009
Loading
Personal Weather Stations






























Interactive Weather Map New forecast layout! Learn more

10-Day Weather Forecast

Advertisements
Track Severe Weather on mobile